Ana Sayfa
METAR-TAF:

METAR-TAF

Havaalanları :

Luksor, Mısır

Enlem: 25-40N, Boylam: 032-42E, yükseklik: 93 m

Güncel hava durumu gözlemi

Rapor saat 08:00 UTC de 1 saat ve 32 dakika önce yapıldı.
Rüzgar kuzeybatıdan 2 kt
Sıcaklık 39°C
Nem 13%
Basınç 1006 hPa
Görüş mesafesi 10 km veya daha fazla
1500 m altında bulut yok ve kümülonimbus yok

METAR: HELX 250800Z 32002KT CAVOK 39/06 Q1006 NOSIG

Saat: 11:32 (09:32 UTC)

Tahmin

Rapor saat 05:00 UTC de 4 saat ve 32 dakika önce yapıldı.
Ayın 25'si saat 06 UTC'den ayın 26'si saat 12 UTC'ye kadar geçerli Tahmin
Rüzgar kuzey/kuzeydoğudan 5 kt
Görüş mesafesi 10 km veya daha fazla
1500 m altında bulut yok ve kümülonimbus yok

TAF: HELX 250500Z 2506/2612 02005KT CAVOK

4.000'den fazla havaalanı için hava durumu gözlemleri ve tahminleri (METAR ve TAF raporları).

Kullanılabilir istasyonlar harita üzerinde sarı ve kırmızı noktalarla gösterilir.

İstasyonun adını görmek için fareyi noktanın üzerinde gezdirin.

Sonrasında hava gözlem ve tahminlerini görmek için tıklayın.

Haritayı değiştirmek için: yaklaştırmak için siyah artı işaretli yeşil düğmeye ve uzaklaştırmak için de eksi işaretli düğmeye hızla tıklayın; bitişik haritalar için yeşil okları kullanın.


METAR-TAF: